createdAt,value
2023-03-22T00:01:20.809Z,98679.50
2023-03-22T00:03:49.530Z,98693.06
2023-03-22T00:06:17.651Z,98698.88
2023-03-22T00:08:46.173Z,98688.00
2023-03-22T00:11:14.281Z,98670.91
2023-03-22T00:13:44.016Z,98690.56
2023-03-22T00:16:13.897Z,98687.44
2023-03-22T00:18:42.073Z,98682.59
2023-03-22T00:21:13.468Z,98680.84
2023-03-22T00:23:41.793Z,98678.78
2023-03-22T00:26:10.229Z,98674.44
2023-03-22T00:28:38.292Z,98661.63
2023-03-22T00:31:07.305Z,98666.47
2023-03-22T00:33:37.724Z,98602.47
2023-03-22T00:36:08.390Z,98658.03
2023-03-22T00:38:42.961Z,98655.19
2023-03-22T00:41:12.944Z,98655.81
2023-03-22T00:43:41.161Z,98654.97
2023-03-22T00:46:09.322Z,98651.50
2023-03-22T00:48:39.007Z,98649.19
2023-03-22T00:51:07.404Z,98651.59
2023-03-22T00:53:36.514Z,98644.47
2023-03-22T00:56:05.626Z,98644.47
2023-03-22T00:58:33.603Z,98643.00
2023-03-22T01:01:01.807Z,98633.75
2023-03-22T01:03:29.769Z,98636.13
2023-03-22T01:05:59.372Z,98635.66
2023-03-22T01:08:33.683Z,98620.47
2023-03-22T01:11:02.358Z,98638.84
2023-03-22T01:13:30.348Z,98623.59
2023-03-22T01:15:58.291Z,98628.44
2023-03-22T01:18:26.193Z,98615.75
2023-03-22T01:20:54.115Z,98629.41
2023-03-22T01:23:23.409Z,98630.50
2023-03-22T01:25:51.369Z,98628.78
2023-03-22T01:28:19.254Z,98621.53
2023-03-22T01:30:47.271Z,98630.50
2023-03-22T01:33:15.373Z,98614.78
2023-03-22T01:35:43.403Z,98608.16
2023-03-22T01:38:11.566Z,98615.41
2023-03-22T01:40:41.390Z,98610.81
2023-03-22T01:43:14.558Z,98619.38
2023-03-22T01:45:45.913Z,98609.59
2023-03-22T01:48:20.493Z,98610.19
2023-03-22T01:50:57.561Z,98618.38
2023-03-22T01:53:27.413Z,98615.50
2023-03-22T01:55:58.941Z,98604.72
2023-03-22T01:58:27.287Z,98608.97
2023-03-22T02:00:55.914Z,98609.66
2023-03-22T02:03:33.423Z,98618.38
2023-03-22T02:06:01.359Z,98612.09
2023-03-22T02:08:30.272Z,98607.38
2023-03-22T02:10:59.806Z,98615.47
2023-03-22T02:13:42.597Z,98613.53
2023-03-22T02:16:24.353Z,98617.50
2023-03-22T02:19:02.934Z,98606.44
2023-03-22T02:21:58.749Z,98604.84
2023-03-22T02:24:55.687Z,98604.84
2023-03-22T02:27:52.387Z,98591.09
2023-03-22T02:30:39.258Z,98593.25
2023-03-22T02:33:31.086Z,98585.16
2023-03-22T02:36:16.619Z,98571.13
2023-03-22T02:39:08.139Z,98575.38
2023-03-22T02:41:48.290Z,98567.41
2023-03-22T02:44:26.687Z,98568.94
2023-03-22T02:47:03.212Z,98561.13
2023-03-22T02:49:37.446Z,98556.91
2023-03-22T02:52:17.600Z,98557.84
2023-03-22T02:54:53.831Z,98560.50
2023-03-22T02:57:28.249Z,98567.34
2023-03-22T02:59:58.786Z,98570.00
2023-03-22T03:02:29.747Z,98570.34
2023-03-22T03:04:59.203Z,98558.41
2023-03-22T03:07:30.012Z,98567.34
2023-03-22T03:09:59.776Z,98572.91
2023-03-22T03:12:30.293Z,98571.22
2023-03-22T03:14:58.406Z,98570.19
2023-03-22T03:17:37.272Z,98577.28
2023-03-22T03:20:24.315Z,98572.75
2023-03-22T03:23:01.265Z,98581.00
2023-03-22T03:25:38.468Z,98583.34
2023-03-22T03:28:16.097Z,98580.91
2023-03-22T03:30:51.909Z,98581.03
2023-03-22T03:33:22.854Z,98575.72
2023-03-22T03:35:56.061Z,98582.50
2023-03-22T03:38:27.668Z,98580.53
2023-03-22T03:41:00.590Z,98583.94
2023-03-22T03:43:28.730Z,98579.94
2023-03-22T03:45:57.025Z,98583.53
2023-03-22T03:48:27.409Z,98578.28
2023-03-22T03:50:57.250Z,98587.13
2023-03-22T03:53:25.460Z,98578.75
2023-03-22T03:55:53.379Z,98591.53
2023-03-22T03:58:22.721Z,98588.69
2023-03-22T04:00:51.744Z,98599.69
2023-03-22T04:03:19.721Z,98598.44
2023-03-22T04:05:47.645Z,98592.91
2023-03-22T04:08:15.647Z,98592.34
2023-03-22T04:10:44.040Z,98587.94
2023-03-22T04:13:11.929Z,98587.28
2023-03-22T04:15:41.214Z,98582.38
2023-03-22T04:18:09.812Z,98583.97
2023-03-22T04:20:39.346Z,98576.03
2023-03-22T04:23:07.541Z,98571.13
2023-03-22T04:25:38.069Z,98576.09
2023-03-22T04:28:06.484Z,98560.94
2023-03-22T04:30:36.300Z,98557.56
2023-03-22T04:33:07.324Z,98559.53
2023-03-22T04:35:36.186Z,98557.88
2023-03-22T04:38:04.131Z,98552.59
2023-03-22T04:40:36.566Z,98550.16
2023-03-22T04:43:04.789Z,98549.84
2023-03-22T04:45:35.081Z,98548.47
2023-03-22T04:48:03.034Z,98544.38
2023-03-22T04:50:32.332Z,98543.72
2023-03-22T04:53:00.381Z,98533.00
2023-03-22T04:55:28.231Z,98548.78
2023-03-22T04:57:56.099Z,98550.75
2023-03-22T05:00:24.123Z,98549.91
2023-03-22T05:02:52.190Z,98548.25
2023-03-22T05:05:20.155Z,98540.06
2023-03-22T05:07:49.827Z,98538.91
2023-03-22T05:10:17.810Z,98548.94
2023-03-22T05:12:46.286Z,98540.41
2023-03-22T05:15:14.238Z,98549.59
2023-03-22T05:17:42.155Z,98548.13
2023-03-22T05:20:11.645Z,98550.53
2023-03-22T05:22:40.778Z,98552.16
2023-03-22T05:25:11.875Z,98540.88
2023-03-22T05:27:39.776Z,98551.91
2023-03-22T05:30:09.928Z,98534.22
2023-03-22T05:32:43.112Z,98535.06
2023-03-22T05:35:11.396Z,98543.81
2023-03-22T05:37:39.372Z,98539.28
2023-03-22T05:40:10.053Z,98541.13
2023-03-22T05:42:39.347Z,98538.63
2023-03-22T05:45:08.348Z,98543.38
2023-03-22T05:47:36.220Z,98541.47
2023-03-22T05:50:04.188Z,98541.34
2023-03-22T05:52:32.068Z,98545.78
2023-03-22T05:54:59.952Z,98536.28
2023-03-22T05:57:30.109Z,98539.59
2023-03-22T05:59:59.432Z,98541.78
2023-03-22T06:02:27.321Z,98543.16
2023-03-22T06:04:55.340Z,98550.63
2023-03-22T06:07:23.369Z,98548.72
2023-03-22T06:09:51.218Z,98552.66
2023-03-22T06:12:22.666Z,98551.41
2023-03-22T06:14:50.561Z,98553.53
2023-03-22T06:17:20.058Z,98552.25
2023-03-22T06:19:48.023Z,98546.38
2023-03-22T06:22:16.062Z,98551.84
2023-03-22T06:24:44.182Z,98554.72
2023-03-22T06:27:12.193Z,98554.09
2023-03-22T06:29:40.225Z,98562.97
2023-03-22T06:32:08.232Z,98558.88
2023-03-22T06:34:37.886Z,98553.34
2023-03-22T06:37:08.291Z,98549.44
2023-03-22T06:39:36.153Z,98546.47
2023-03-22T06:42:04.083Z,98544.75
2023-03-22T06:44:31.961Z,98545.63
2023-03-22T06:46:59.841Z,98551.75
2023-03-22T06:49:27.986Z,98551.06
2023-03-22T06:51:57.233Z,98550.31
2023-03-22T06:54:25.074Z,98545.47
2023-03-22T06:56:52.953Z,98552.47
2023-03-22T06:59:20.901Z,98560.06
2023-03-22T07:01:49.060Z,98555.03
2023-03-22T07:04:16.994Z,98554.28
2023-03-22T07:06:44.956Z,98562.09
2023-03-22T07:09:14.212Z,98553.31
2023-03-22T07:11:42.117Z,98549.88
2023-03-22T07:14:10.036Z,98561.56
2023-03-22T07:16:38.056Z,98553.78
2023-03-22T07:19:06.188Z,98549.97
2023-03-22T07:21:34.392Z,98553.72
2023-03-22T07:24:02.313Z,98559.03
2023-03-22T07:26:31.721Z,98562.75
2023-03-22T07:28:59.606Z,98563.38
2023-03-22T07:31:27.519Z,98563.38
2023-03-22T07:33:55.375Z,98561.78
2023-03-22T07:36:25.803Z,98550.34
2023-03-22T07:38:53.700Z,98554.53
2023-03-22T07:41:24.143Z,98561.97
2023-03-22T07:44:02.192Z,98551.59
2023-03-22T07:46:35.794Z,98555.81
2023-03-22T07:49:03.690Z,98544.28
2023-03-22T07:51:31.614Z,98559.84
2023-03-22T07:53:59.501Z,98546.84
2023-03-22T07:56:27.533Z,98538.84
2023-03-22T07:58:56.872Z,98537.38
2023-03-22T08:01:24.808Z,98534.59
2023-03-22T08:03:52.758Z,98542.03
2023-03-22T08:06:21.658Z,98534.88
2023-03-22T08:08:49.752Z,98535.41
2023-03-22T08:11:17.635Z,98521.50
2023-03-22T08:13:45.643Z,98522.72
2023-03-22T08:16:14.977Z,98530.84
2023-03-22T08:18:44.414Z,98535.06
2023-03-22T08:21:13.285Z,98534.63
2023-03-22T08:23:42.449Z,98533.84
2023-03-22T08:26:11.152Z,98534.75
2023-03-22T08:28:39.063Z,98527.53
2023-03-22T08:31:14.019Z,98534.78
2023-03-22T08:33:44.564Z,98535.53
2023-03-22T08:36:15.181Z,98536.41
2023-03-22T08:38:45.329Z,98538.47
2023-03-22T08:41:13.433Z,98541.41
2023-03-22T08:43:41.406Z,98542.38
2023-03-22T08:46:09.959Z,98545.16
2023-03-22T08:48:38.571Z,98545.91
2023-03-22T08:51:08.336Z,98540.56
2023-03-22T08:53:36.561Z,98546.50
2023-03-22T08:56:04.753Z,98544.50
2023-03-22T08:58:32.597Z,98545.91
2023-03-22T09:01:00.660Z,98536.97
2023-03-22T09:03:28.590Z,98533.13
2023-03-22T09:05:56.510Z,98540.41
2023-03-22T09:08:26.096Z,98539.94
2023-03-22T09:10:53.993Z,98537.59
2023-03-22T09:13:23.179Z,98545.69
2023-03-22T09:15:51.906Z,98544.84
2023-03-22T09:18:20.324Z,98533.53
2023-03-22T09:20:48.258Z,98528.00
2023-03-22T09:23:16.233Z,98520.94
2023-03-22T09:25:46.366Z,98518.09
2023-03-22T09:28:14.817Z,98525.31
2023-03-22T09:30:42.965Z,98526.72
2023-03-22T09:33:10.998Z,98512.66
2023-03-22T09:35:43.050Z,98515.03
2023-03-22T09:38:12.246Z,98509.81
2023-03-22T09:40:51.406Z,98507.50
2023-03-22T09:43:20.709Z,98517.28
2023-03-22T09:45:52.799Z,98517.91
2023-03-22T09:48:23.700Z,98518.25
2023-03-22T09:50:53.919Z,98504.50
2023-03-22T09:53:25.604Z,98504.28
2023-03-22T09:56:00.318Z,98513.69
2023-03-22T09:58:34.231Z,98506.69
2023-03-22T10:01:06.560Z,98504.88
2023-03-22T10:04:01.418Z,98487.22
2023-03-22T10:06:30.780Z,98490.94
2023-03-22T10:09:09.204Z,98494.97
2023-03-22T10:11:46.134Z,98495.63
2023-03-22T10:14:31.179Z,98495.50
2023-03-22T10:17:03.828Z,98480.00
2023-03-22T10:19:37.006Z,98483.53
2023-03-22T10:22:07.839Z,98487.38
2023-03-22T10:24:39.731Z,98483.34
2023-03-22T10:27:17.127Z,98479.34
2023-03-22T10:29:49.639Z,98491.09
2023-03-22T10:32:20.105Z,98475.13
2023-03-22T10:34:49.464Z,98486.19
2023-03-22T10:37:23.556Z,98484.03
2023-03-22T10:39:55.641Z,98485.41
2023-03-22T10:42:28.081Z,98485.56
2023-03-22T10:45:01.686Z,98478.50
2023-03-22T10:47:34.986Z,98472.13
2023-03-22T10:50:06.028Z,98487.56
2023-03-22T10:52:44.018Z,98484.38
2023-03-22T10:55:14.755Z,98485.91
2023-03-22T10:57:52.213Z,98468.09
2023-03-22T11:00:24.290Z,98466.50
2023-03-22T11:02:54.635Z,98468.13
2023-03-22T11:05:25.880Z,98468.50
2023-03-22T11:07:54.945Z,98479.75
2023-03-22T11:10:29.313Z,98474.19
2023-03-22T11:13:18.001Z,98474.44
2023-03-22T11:15:53.613Z,98468.63
2023-03-22T11:18:21.788Z,98470.75
2023-03-22T11:20:59.971Z,98473.53
2023-03-22T11:23:32.718Z,98476.22
2023-03-22T11:26:09.753Z,98471.19
2023-03-22T11:28:43.650Z,98465.47
2023-03-22T11:31:13.413Z,98472.00
2023-03-22T11:33:56.014Z,98463.66
2023-03-22T11:36:24.525Z,98462.38
2023-03-22T11:38:59.448Z,98454.25
2023-03-22T11:41:29.433Z,98457.84
2023-03-22T11:44:02.935Z,98443.97
2023-03-22T11:46:32.081Z,98453.09
2023-03-22T11:49:03.143Z,98443.09
2023-03-22T11:51:33.609Z,98441.34
2023-03-22T11:54:10.494Z,98444.56
2023-03-22T11:56:42.854Z,98449.53
2023-03-22T11:59:16.769Z,98440.91
2023-03-22T12:01:50.153Z,98445.41
2023-03-22T12:04:23.819Z,98442.16
2023-03-22T12:06:53.782Z,98438.84
2023-03-22T12:09:29.473Z,98430.97
2023-03-22T12:12:00.112Z,98436.59
2023-03-22T12:14:32.158Z,98432.53
2023-03-22T12:17:07.761Z,98417.47
2023-03-22T12:19:46.656Z,98424.56
2023-03-22T12:22:17.167Z,98422.66
2023-03-22T12:24:45.405Z,98409.84
2023-03-22T12:27:18.990Z,98419.06
2023-03-22T12:29:53.755Z,98412.59
2023-03-22T12:32:26.623Z,98405.06
2023-03-22T12:35:09.235Z,98413.91
2023-03-22T12:37:47.524Z,98403.03
2023-03-22T12:40:23.349Z,98402.78
2023-03-22T12:43:00.347Z,98401.22
2023-03-22T12:45:32.881Z,98389.22
2023-03-22T12:48:07.326Z,98396.41
2023-03-22T12:50:39.895Z,98381.03
2023-03-22T12:53:12.788Z,98380.03
2023-03-22T12:55:42.474Z,98378.19
2023-03-22T12:58:14.220Z,98378.78
2023-03-22T13:00:46.932Z,98377.56
2023-03-22T13:03:24.606Z,98358.94
2023-03-22T13:06:02.807Z,98368.88
2023-03-22T13:09:04.608Z,98371.38
2023-03-22T13:11:32.769Z,98374.72
2023-03-22T13:14:00.668Z,98360.53
2023-03-22T13:16:53.271Z,98362.47
2023-03-22T13:19:31.566Z,98354.84
2023-03-22T13:22:17.020Z,98357.91
2023-03-22T13:25:13.988Z,98360.81
2023-03-22T13:27:51.273Z,98340.66
2023-03-22T13:30:25.336Z,98351.41
2023-03-22T13:32:56.721Z,98351.22
2023-03-22T13:35:28.380Z,98345.09
2023-03-22T13:38:03.305Z,98342.94
2023-03-22T13:40:37.099Z,98338.00
2023-03-22T13:43:26.174Z,98340.50
2023-03-22T13:46:06.232Z,98337.44
2023-03-22T13:48:54.200Z,98329.72
2023-03-22T13:51:30.293Z,98322.50
2023-03-22T13:54:04.765Z,98311.56
2023-03-22T13:56:47.884Z,98320.00
2023-03-22T13:59:21.352Z,98307.22
2023-03-22T14:01:52.741Z,98308.97
2023-03-22T14:04:26.739Z,98314.94
2023-03-22T14:06:59.800Z,98299.63
2023-03-22T14:09:32.411Z,98310.19
2023-03-22T14:12:07.064Z,98306.84
2023-03-22T14:14:42.955Z,98303.84
2023-03-22T14:17:21.487Z,98300.78
2023-03-22T14:19:53.456Z,98301.34
